Terminal Aerodrome Forecast
Issued by NWS Springfield, MO

Home | Current Version | Previous Version | Text Only | Print | Product List | Glossary On
Versions: 1 2 3 4 5 6 7 8 9 10 11 12 13 14 15 16 17 18
000
FTUS43 KSGF 211408 AAB
TAFSGF
TAF AMD
KSGF 211408Z 2114/2212 11015KT P6SM VCTS SCT050CB OVC090
      TEMPO 2114/2116 5SM -TSRA BR OVC050CB
     FM211600 06012G17KT P6SM BKN050
     FM212200 07015G20KT P6SM BKN050
      TEMPO 2122/2202 4SM TSRA SCT025 OVC050CB
     FM220200 07014G20KT P6SM OVC040 PROB30 2202/2208 5SM SHRA
      SCT025 OVC035
     FM220800 08017G22KT P6SM OVC035=

USA.gov is the U.S. government's official web portal to all federal, state and local government web resources and services.